createdAt,value
2022-09-30T00:01:09.420Z,11.63
2022-09-30T00:03:39.177Z,12.38
2022-09-30T00:06:08.678Z,10.70
2022-09-30T00:08:37.304Z,11.77
2022-09-30T00:11:08.441Z,9.95
2022-09-30T00:13:37.558Z,10.85
2022-09-30T00:16:05.384Z,12.40
2022-09-30T00:18:32.657Z,15.10
2022-09-30T00:20:59.936Z,20.30
2022-09-30T00:23:26.838Z,21.58
2022-09-30T00:25:59.426Z,19.38
2022-09-30T00:28:27.339Z,16.63
2022-09-30T00:30:55.080Z,16.80
2022-09-30T00:33:21.981Z,16.75
2022-09-30T00:35:48.803Z,18.58
2022-09-30T00:38:15.726Z,21.88
2022-09-30T00:40:43.292Z,19.90
2022-09-30T00:43:17.450Z,15.80
2022-09-30T00:46:05.502Z,20.70
2022-09-30T00:48:38.573Z,17.88
2022-09-30T00:51:07.876Z,18.30
2022-09-30T00:53:44.713Z,18.10
2022-09-30T00:56:21.706Z,17.92
2022-09-30T00:58:51.928Z,19.73
2022-09-30T01:01:20.964Z,16.67
2022-09-30T01:03:53.649Z,19.90
2022-09-30T01:06:22.624Z,17.23
2022-09-30T01:08:49.832Z,16.48
2022-09-30T01:11:17.440Z,19.60
2022-09-30T01:13:48.132Z,16.90
2022-09-30T01:16:39.960Z,17.77
2022-09-30T01:19:28.540Z,15.23
2022-09-30T01:22:20.787Z,15.98
2022-09-30T01:25:13.287Z,15.35
2022-09-30T01:27:55.734Z,16.92
2022-09-30T01:30:47.502Z,14.40
2022-09-30T01:33:25.863Z,20.00
2022-09-30T01:35:53.023Z,14.30
2022-09-30T01:38:34.396Z,14.45
2022-09-30T01:41:11.016Z,14.02
2022-09-30T01:43:57.751Z,13.48
2022-09-30T01:46:38.507Z,16.90
2022-09-30T01:49:21.980Z,14.98
2022-09-30T01:52:14.998Z,13.45
2022-09-30T01:55:02.218Z,13.77
2022-09-30T01:57:50.698Z,14.05
2022-09-30T02:00:18.997Z,12.77
2022-09-30T02:03:00.420Z,15.00
2022-09-30T02:05:27.532Z,13.85
2022-09-30T02:08:04.424Z,14.73
2022-09-30T02:10:53.152Z,14.00
2022-09-30T02:13:43.676Z,13.70
2022-09-30T02:16:15.670Z,14.57
2022-09-30T02:18:47.077Z,13.93
2022-09-30T02:21:23.349Z,13.95
2022-09-30T02:23:54.922Z,13.32
2022-09-30T02:26:25.657Z,11.77
2022-09-30T02:29:07.812Z,13.85
2022-09-30T02:31:39.316Z,21.58
2022-09-30T02:34:13.894Z,15.90
2022-09-30T02:36:56.172Z,17.17
2022-09-30T02:39:53.298Z,17.98
2022-09-30T02:42:29.575Z,16.70
2022-09-30T02:45:04.502Z,11.07
2022-09-30T02:47:36.424Z,13.88
2022-09-30T02:50:36.386Z,13.73
2022-09-30T02:53:19.079Z,13.73
2022-09-30T02:56:07.961Z,19.42
2022-09-30T02:58:39.625Z,14.50
2022-09-30T03:01:09.580Z,13.43
2022-09-30T03:03:46.865Z,12.77
2022-09-30T03:06:17.049Z,22.30
2022-09-30T03:08:45.125Z,15.32
2022-09-30T03:11:21.528Z,10.68
2022-09-30T03:14:16.096Z,12.55
2022-09-30T03:16:55.385Z,12.63
2022-09-30T03:19:47.208Z,14.82
2022-09-30T03:22:29.652Z,11.52
2022-09-30T03:25:02.234Z,14.45
2022-09-30T03:27:42.686Z,12.73
2022-09-30T03:30:32.176Z,14.27
2022-09-30T03:33:30.360Z,14.02
2022-09-30T03:36:05.503Z,17.27
2022-09-30T03:38:53.980Z,14.75
2022-09-30T03:41:39.629Z,12.50
2022-09-30T03:44:18.617Z,11.90
2022-09-30T03:46:50.355Z,11.05
2022-09-30T03:49:35.472Z,12.25
2022-09-30T03:52:10.885Z,16.55
2022-09-30T03:54:53.706Z,16.10
2022-09-30T03:57:20.656Z,16.25
2022-09-30T03:59:47.521Z,15.32
2022-09-30T04:02:14.309Z,13.52
2022-09-30T04:04:41.967Z,16.67
2022-09-30T04:07:10.441Z,13.05
2022-09-30T04:09:41.191Z,16.80
2022-09-30T04:12:08.764Z,14.43
2022-09-30T04:14:35.886Z,15.90
2022-09-30T04:17:06.640Z,15.15
2022-09-30T04:19:40.274Z,14.23
2022-09-30T04:22:07.846Z,14.52
2022-09-30T04:24:35.522Z,20.00
2022-09-30T04:27:03.112Z,21.85
2022-09-30T04:29:29.981Z,21.27
2022-09-30T04:31:57.593Z,20.35
2022-09-30T04:34:24.745Z,20.23
2022-09-30T04:36:51.805Z,22.30
2022-09-30T04:39:18.891Z,27.30
2022-09-30T04:41:45.729Z,19.88
2022-09-30T04:44:13.641Z,22.30
2022-09-30T04:46:40.538Z,17.77
2022-09-30T04:49:09.517Z,23.30
2022-09-30T04:51:38.374Z,19.33
2022-09-30T04:54:05.506Z,29.05
2022-09-30T04:56:33.280Z,24.98
2022-09-30T04:59:00.187Z,23.20
2022-09-30T05:01:27.016Z,24.08
2022-09-30T05:03:54.726Z,26.77
2022-09-30T05:06:21.847Z,21.65
2022-09-30T05:08:48.741Z,20.98
2022-09-30T05:11:18.791Z,21.38
2022-09-30T05:13:46.797Z,20.75
2022-09-30T05:16:15.035Z,19.20
2022-09-30T05:18:45.885Z,19.45
2022-09-30T05:21:15.531Z,21.30
2022-09-30T05:23:43.004Z,25.15
2022-09-30T05:26:12.583Z,22.52
2022-09-30T05:28:42.059Z,21.60
2022-09-30T05:31:09.344Z,20.13
2022-09-30T05:33:36.469Z,20.48
2022-09-30T05:36:06.762Z,20.15
2022-09-30T05:38:34.783Z,21.27
2022-09-30T05:41:11.586Z,18.77
2022-09-30T05:43:45.519Z,22.15
2022-09-30T05:46:12.858Z,21.58
2022-09-30T05:48:40.287Z,39.97
2022-09-30T05:51:07.678Z,32.67
2022-09-30T05:53:39.975Z,53.38
2022-09-30T05:56:08.308Z,34.63
2022-09-30T05:58:36.016Z,37.85
2022-09-30T06:01:13.767Z,31.80
2022-09-30T06:03:44.830Z,19.17
2022-09-30T06:06:13.082Z,21.15
2022-09-30T06:08:41.388Z,27.60
2022-09-30T06:11:13.001Z,23.20
2022-09-30T06:13:41.509Z,22.80
2022-09-30T06:16:10.598Z,17.73
2022-09-30T06:18:41.283Z,21.20
2022-09-30T06:21:11.494Z,19.52
2022-09-30T06:23:39.053Z,20.13
2022-09-30T06:26:08.417Z,17.27
2022-09-30T06:28:35.845Z,18.20
2022-09-30T06:31:03.542Z,21.60
2022-09-30T06:33:32.007Z,27.98
2022-09-30T06:35:59.821Z,22.70
2022-09-30T06:38:28.812Z,29.48
2022-09-30T06:40:56.718Z,38.83
2022-09-30T06:43:23.711Z,40.88
2022-09-30T06:45:51.804Z,22.40
2022-09-30T06:48:32.359Z,21.48
2022-09-30T06:51:02.780Z,21.85
2022-09-30T06:53:30.106Z,16.88
2022-09-30T06:55:58.076Z,16.75
2022-09-30T06:58:25.580Z,20.13
2022-09-30T07:01:04.411Z,20.83
2022-09-30T07:03:33.962Z,16.98
2022-09-30T07:06:02.951Z,23.70
2022-09-30T07:08:34.411Z,15.80
2022-09-30T07:11:08.603Z,16.58
2022-09-30T07:13:35.550Z,23.48
2022-09-30T07:16:02.589Z,21.92
2022-09-30T07:18:29.986Z,19.02
2022-09-30T07:20:57.473Z,19.05
2022-09-30T07:23:27.173Z,19.38
2022-09-30T07:26:00.465Z,21.67
2022-09-30T07:28:32.762Z,16.40
2022-09-30T07:31:30.657Z,19.23
2022-09-30T07:33:54.392Z,26.30
2022-09-30T07:36:32.146Z,17.23
2022-09-30T07:39:00.328Z,17.55
2022-09-30T07:41:29.165Z,20.05
2022-09-30T07:43:59.263Z,18.58
2022-09-30T07:46:29.816Z,23.75
2022-09-30T07:49:01.528Z,17.67
2022-09-30T07:51:37.298Z,18.13
2022-09-30T07:54:13.353Z,18.60
2022-09-30T07:57:08.052Z,18.13
2022-09-30T07:59:30.634Z,26.10
2022-09-30T08:01:58.237Z,15.88
2022-09-30T08:04:27.101Z,17.02
2022-09-30T08:07:00.172Z,14.35
2022-09-30T08:09:29.843Z,26.23
2022-09-30T08:11:57.269Z,17.52
2022-09-30T08:14:27.800Z,20.45
2022-09-30T08:16:57.065Z,10.88
2022-09-30T08:19:25.370Z,11.88
2022-09-30T08:21:55.938Z,11.55
2022-09-30T08:24:26.136Z,12.30
2022-09-30T08:26:53.720Z,9.50
2022-09-30T08:29:42.597Z,10.25
2022-09-30T08:32:08.717Z,14.52
2022-09-30T08:34:37.291Z,9.35
2022-09-30T08:37:08.729Z,11.43
2022-09-30T08:39:39.413Z,12.45
2022-09-30T08:42:41.320Z,9.82
2022-09-30T08:45:42.317Z,7.70
2022-09-30T08:48:47.326Z,9.30
2022-09-30T08:51:27.959Z,7.82
2022-09-30T08:53:57.493Z,13.77
2022-09-30T08:56:32.500Z,10.95
2022-09-30T08:59:27.944Z,9.85
2022-09-30T09:02:14.032Z,13.52
2022-09-30T09:04:44.862Z,9.70
2022-09-30T09:07:30.173Z,12.50
2022-09-30T09:10:12.277Z,12.25
2022-09-30T09:13:06.777Z,15.77
2022-09-30T09:16:00.539Z,14.05
2022-09-30T09:18:44.929Z,9.00
2022-09-30T09:21:40.916Z,13.23
2022-09-30T09:24:16.276Z,13.45
2022-09-30T09:26:43.291Z,10.70
2022-09-30T09:29:42.183Z,10.60
2022-09-30T09:32:14.831Z,12.25
2022-09-30T09:34:41.842Z,13.82
2022-09-30T09:37:22.066Z,14.52
2022-09-30T09:40:09.174Z,10.82
2022-09-30T09:43:03.507Z,10.65
2022-09-30T09:45:38.945Z,9.68
2022-09-30T09:48:12.056Z,11.07
2022-09-30T09:51:03.663Z,9.90
2022-09-30T09:53:45.315Z,7.78
2022-09-30T09:56:19.132Z,8.00
2022-09-30T09:59:05.443Z,9.68
2022-09-30T10:01:33.792Z,11.45
2022-09-30T10:04:19.874Z,9.55
2022-09-30T10:07:00.412Z,8.05
2022-09-30T10:09:39.271Z,6.32
2022-09-30T10:12:06.022Z,8.90
2022-09-30T10:14:35.703Z,7.43
2022-09-30T10:17:05.785Z,8.77
2022-09-30T10:19:35.233Z,8.23
2022-09-30T10:22:08.441Z,8.57
2022-09-30T10:24:37.546Z,8.15
2022-09-30T10:27:05.205Z,6.85
2022-09-30T10:29:35.334Z,7.28
2022-09-30T10:32:09.927Z,9.45
2022-09-30T10:34:42.749Z,7.68
2022-09-30T10:37:19.821Z,7.65
2022-09-30T10:39:56.066Z,9.10
2022-09-30T10:42:26.967Z,7.57
2022-09-30T10:45:05.042Z,8.30
2022-09-30T10:47:37.038Z,9.23
2022-09-30T10:50:16.610Z,8.60
2022-09-30T10:53:03.297Z,7.63
2022-09-30T10:55:43.171Z,7.05
2022-09-30T10:58:30.929Z,7.13
2022-09-30T11:01:04.761Z,5.68
2022-09-30T11:03:39.858Z,8.45
2022-09-30T11:06:11.963Z,7.88
2022-09-30T11:08:51.243Z,9.50
2022-09-30T11:11:28.052Z,8.05
2022-09-30T11:14:07.710Z,6.32
2022-09-30T11:16:52.924Z,12.00
2022-09-30T11:19:33.480Z,4.70
2022-09-30T11:22:17.062Z,4.93
2022-09-30T11:24:50.389Z,4.50
2022-09-30T11:27:47.923Z,6.47
2022-09-30T11:30:41.661Z,4.97
2022-09-30T11:33:40.763Z,6.78
2022-09-30T11:36:28.098Z,6.05
2022-09-30T11:39:04.489Z,4.45
2022-09-30T11:41:49.572Z,6.68
2022-09-30T11:44:21.910Z,5.30
2022-09-30T11:46:51.509Z,4.95
2022-09-30T11:49:51.947Z,6.40
2022-09-30T11:52:37.037Z,7.15
2022-09-30T11:55:10.605Z,2.30
2022-09-30T11:57:56.417Z,4.40
2022-09-30T12:00:23.730Z,5.07
2022-09-30T12:02:59.158Z,4.43
2022-09-30T12:05:35.841Z,9.00
2022-09-30T12:08:17.825Z,4.97
2022-09-30T12:11:01.590Z,10.18
2022-09-30T12:13:37.340Z,4.40
2022-09-30T12:16:14.865Z,4.75
2022-09-30T12:18:46.292Z,2.63
2022-09-30T12:21:22.313Z,3.80
2022-09-30T12:24:11.946Z,3.58
2022-09-30T12:26:41.797Z,11.73
2022-09-30T12:29:33.351Z,3.28
2022-09-30T12:32:09.356Z,3.40
2022-09-30T12:35:04.584Z,2.33
2022-09-30T12:37:56.350Z,8.40
2022-09-30T12:40:45.162Z,9.65
2022-09-30T12:43:38.104Z,4.07
2022-09-30T12:46:49.883Z,5.47
2022-09-30T12:49:21.650Z,2.97
2022-09-30T12:51:57.779Z,2.90
2022-09-30T12:54:39.127Z,1.73
2022-09-30T12:57:09.355Z,1.70
2022-09-30T12:59:48.214Z,3.42
2022-09-30T13:02:40.397Z,3.50
2022-09-30T13:05:27.334Z,2.80
2022-09-30T13:08:06.902Z,2.67
2022-09-30T13:10:40.032Z,3.70
2022-09-30T13:13:26.785Z,4.97
2022-09-30T13:16:03.577Z,3.00
2022-09-30T13:18:30.773Z,3.67
2022-09-30T13:21:08.005Z,5.15
2022-09-30T13:23:41.175Z,5.38
2022-09-30T13:26:38.525Z,3.58
2022-09-30T13:29:06.214Z,3.03
2022-09-30T13:31:52.988Z,2.80
2022-09-30T13:34:24.176Z,4.47
2022-09-30T13:36:51.161Z,3.30
2022-09-30T13:39:46.438Z,4.70
2022-09-30T13:42:17.961Z,15.30
2022-09-30T13:45:03.534Z,4.18
2022-09-30T13:47:35.845Z,4.88
2022-09-30T13:50:18.506Z,10.48
2022-09-30T13:52:58.981Z,4.35
2022-09-30T13:55:50.361Z,3.25
2022-09-30T13:58:20.196Z,2.22
2022-09-30T14:00:56.211Z,3.40
2022-09-30T14:03:56.900Z,3.70
2022-09-30T14:06:42.118Z,6.25
2022-09-30T14:09:18.921Z,7.72
2022-09-30T14:11:59.297Z,7.15
2022-09-30T14:14:53.266Z,7.68
2022-09-30T14:17:52.561Z,2.28
2022-09-30T14:20:41.713Z,5.63
2022-09-30T14:23:16.489Z,4.22
2022-09-30T14:26:21.945Z,4.13
2022-09-30T14:28:58.802Z,3.13
2022-09-30T14:31:25.884Z,2.58
2022-09-30T14:33:53.069Z,1.85
2022-09-30T14:36:22.442Z,2.28
2022-09-30T14:38:53.720Z,1.33
2022-09-30T14:41:23.814Z,3.42
2022-09-30T14:43:55.372Z,2.50
2022-09-30T14:46:34.685Z,1.65
2022-09-30T14:49:09.935Z,2.63
2022-09-30T14:51:43.599Z,1.70
2022-09-30T14:54:20.788Z,3.40
2022-09-30T14:56:49.661Z,3.28
2022-09-30T14:59:24.879Z,3.08
2022-09-30T15:02:13.203Z,7.10
2022-09-30T15:04:46.903Z,2.47
2022-09-30T15:07:14.051Z,2.45
2022-09-30T15:09:44.270Z,2.97
2022-09-30T15:12:21.685Z,4.72
2022-09-30T15:14:54.485Z,2.70
2022-09-30T15:17:27.223Z,1.85
2022-09-30T15:19:56.041Z,4.30
2022-09-30T15:22:26.568Z,1.70
2022-09-30T15:24:54.636Z,8.07
2022-09-30T15:27:26.058Z,2.25
2022-09-30T15:30:03.681Z,3.70
2022-09-30T15:32:34.338Z,2.50
2022-09-30T15:35:24.071Z,6.10
2022-09-30T15:37:52.344Z,4.05
2022-09-30T15:40:43.305Z,1.67
2022-09-30T15:43:15.646Z,1.90
2022-09-30T15:45:48.646Z,1.30
2022-09-30T15:48:23.620Z,3.08
2022-09-30T15:50:59.436Z,4.78
2022-09-30T15:53:29.962Z,2.45
2022-09-30T15:56:15.832Z,2.35
2022-09-30T15:58:58.134Z,4.22
2022-09-30T16:01:26.921Z,1.77
2022-09-30T16:03:56.993Z,3.58
2022-09-30T16:06:37.551Z,3.92
2022-09-30T16:09:06.838Z,7.25
2022-09-30T16:11:41.870Z,1.95
2022-09-30T16:14:27.719Z,2.05
2022-09-30T16:16:58.408Z,4.68
2022-09-30T16:19:27.003Z,3.60
2022-09-30T16:21:55.273Z,2.92
2022-09-30T16:24:25.666Z,1.67
2022-09-30T16:26:55.750Z,2.15
2022-09-30T16:29:24.551Z,2.72
2022-09-30T16:31:54.437Z,2.38
2022-09-30T16:34:27.696Z,2.78
2022-09-30T16:37:03.464Z,3.05
2022-09-30T16:39:30.846Z,2.17
2022-09-30T16:41:57.748Z,3.17
2022-09-30T16:44:25.065Z,3.80
2022-09-30T16:46:52.241Z,5.57
2022-09-30T16:49:20.536Z,2.80
2022-09-30T16:51:47.920Z,3.75
2022-09-30T16:54:15.268Z,3.05
2022-09-30T16:56:42.623Z,3.40
2022-09-30T16:59:17.993Z,7.40
2022-09-30T17:01:45.307Z,4.53
2022-09-30T17:04:15.261Z,4.40
2022-09-30T17:06:44.679Z,2.65
2022-09-30T17:09:11.686Z,5.15
2022-09-30T17:11:38.578Z,2.42
2022-09-30T17:14:06.148Z,6.53
2022-09-30T17:16:33.523Z,7.00
2022-09-30T17:19:01.797Z,5.00
2022-09-30T17:21:28.738Z,3.15
2022-09-30T17:23:56.242Z,4.60
2022-09-30T17:26:23.584Z,5.05
2022-09-30T17:28:51.193Z,6.47
2022-09-30T17:31:18.128Z,6.53
2022-09-30T17:33:45.398Z,4.88
2022-09-30T17:36:14.365Z,2.63
2022-09-30T17:38:41.564Z,2.40
2022-09-30T17:41:31.754Z,4.40
2022-09-30T17:44:02.637Z,4.60
2022-09-30T17:46:43.803Z,7.05
2022-09-30T17:49:21.896Z,2.53
2022-09-30T17:51:50.839Z,2.65
2022-09-30T17:54:20.941Z,2.92
2022-09-30T17:56:47.942Z,3.33
2022-09-30T17:59:15.001Z,6.78
2022-09-30T18:01:42.223Z,4.55
2022-09-30T18:04:09.064Z,3.75
2022-09-30T18:06:35.925Z,2.13
2022-09-30T18:09:02.933Z,5.43
2022-09-30T18:11:31.209Z,5.95
2022-09-30T18:13:59.787Z,6.45
2022-09-30T18:16:30.977Z,5.68
2022-09-30T18:19:04.239Z,2.92
2022-09-30T18:21:32.585Z,4.07
2022-09-30T18:24:00.558Z,4.32
2022-09-30T18:26:33.245Z,6.80
2022-09-30T18:29:02.436Z,2.78
2022-09-30T18:31:34.945Z,4.53
2022-09-30T18:34:04.815Z,9.70
2022-09-30T18:36:32.673Z,3.70
2022-09-30T18:39:01.278Z,5.90
2022-09-30T18:41:30.668Z,6.18
2022-09-30T18:44:02.852Z,3.47
2022-09-30T18:46:31.396Z,6.32
2022-09-30T18:48:58.359Z,14.15
2022-09-30T18:51:25.681Z,6.35
2022-09-30T18:54:00.753Z,4.15
2022-09-30T18:56:32.571Z,7.60
2022-09-30T18:59:04.729Z,3.75
2022-09-30T19:01:34.141Z,2.17
2022-09-30T19:04:04.984Z,3.90
2022-09-30T19:06:32.968Z,4.43
2022-09-30T19:08:59.751Z,4.72
2022-09-30T19:11:28.018Z,5.25
2022-09-30T19:14:01.502Z,5.40
2022-09-30T19:16:35.272Z,2.55
2022-09-30T19:19:05.181Z,3.60
2022-09-30T19:21:36.445Z,4.00
2022-09-30T19:24:04.793Z,4.75
2022-09-30T19:26:33.851Z,2.45
2022-09-30T19:29:01.071Z,5.05
2022-09-30T19:31:28.698Z,4.97
2022-09-30T19:33:57.104Z,4.53
2022-09-30T19:36:27.043Z,3.88
2022-09-30T19:39:09.923Z,2.78
2022-09-30T19:41:38.083Z,8.23
2022-09-30T19:44:05.080Z,2.35
2022-09-30T19:46:32.666Z,4.82
2022-09-30T19:48:59.577Z,3.78
2022-09-30T19:51:29.266Z,7.15
2022-09-30T19:54:05.366Z,3.45
2022-09-30T19:56:36.020Z,9.20
2022-09-30T19:59:03.932Z,16.25
2022-09-30T20:01:34.310Z,14.05
2022-09-30T20:04:05.033Z,12.38
2022-09-30T20:06:33.481Z,11.23
2022-09-30T20:09:02.558Z,2.95
2022-09-30T20:11:36.089Z,4.60
2022-09-30T20:14:24.027Z,4.20
2022-09-30T20:16:51.653Z,4.47
2022-09-30T20:19:19.366Z,4.32
2022-09-30T20:21:47.416Z,5.70
2022-09-30T20:24:16.705Z,4.75
2022-09-30T20:26:46.701Z,3.20
2022-09-30T20:29:14.152Z,5.80
2022-09-30T20:31:42.877Z,4.18
2022-09-30T20:34:16.528Z,6.20
2022-09-30T20:36:45.131Z,7.07
2022-09-30T20:39:12.121Z,3.58
2022-09-30T20:41:39.918Z,5.15
2022-09-30T20:44:11.219Z,5.15
2022-09-30T20:46:39.337Z,9.02
2022-09-30T20:49:06.452Z,6.90
2022-09-30T20:51:34.039Z,5.35
2022-09-30T20:54:01.368Z,3.80
2022-09-30T20:56:44.147Z,4.53
2022-09-30T20:59:17.242Z,4.57
2022-09-30T21:01:44.450Z,6.68
2022-09-30T21:04:11.478Z,4.28
2022-09-30T21:06:38.413Z,5.63
2022-09-30T21:09:05.759Z,5.78
2022-09-30T21:11:52.423Z,6.38
2022-09-30T21:14:19.556Z,6.55
2022-09-30T21:16:46.551Z,6.05
2022-09-30T21:19:13.353Z,6.38
2022-09-30T21:21:40.218Z,5.07
2022-09-30T21:24:07.379Z,8.35
2022-09-30T21:26:35.571Z,5.97
2022-09-30T21:29:03.365Z,6.00
2022-09-30T21:31:30.759Z,7.43
2022-09-30T21:33:59.082Z,7.50
2022-09-30T21:36:27.732Z,5.70
2022-09-30T21:38:55.018Z,6.82
2022-09-30T21:41:22.802Z,5.72
2022-09-30T21:43:49.918Z,5.40
2022-09-30T21:46:18.563Z,5.47
2022-09-30T21:48:46.111Z,7.05
2022-09-30T21:51:14.038Z,5.65
2022-09-30T21:53:42.042Z,9.75
2022-09-30T21:56:12.327Z,8.52
2022-09-30T21:58:39.680Z,7.35
2022-09-30T22:01:07.523Z,10.02
2022-09-30T22:03:37.994Z,8.00
2022-09-30T22:06:09.298Z,8.07
2022-09-30T22:08:40.927Z,8.48
2022-09-30T22:11:28.438Z,7.47
2022-09-30T22:13:57.122Z,8.88
2022-09-30T22:16:27.117Z,8.40
2022-09-30T22:18:56.218Z,12.13
2022-09-30T22:21:23.784Z,10.07
2022-09-30T22:23:50.788Z,9.57
2022-09-30T22:26:20.844Z,10.20
2022-09-30T22:28:53.061Z,12.27
2022-09-30T22:31:22.772Z,9.35
2022-09-30T22:34:11.055Z,11.65
2022-09-30T22:36:57.216Z,7.53
2022-09-30T22:39:24.957Z,10.23
2022-09-30T22:41:53.979Z,11.35
2022-09-30T22:44:29.836Z,12.15
2022-09-30T22:47:00.496Z,7.35
2022-09-30T22:49:44.264Z,9.50
2022-09-30T22:52:11.277Z,7.45
2022-09-30T22:54:38.252Z,11.43
2022-09-30T22:57:07.829Z,10.55
2022-09-30T22:59:36.218Z,9.27
2022-09-30T23:02:05.056Z,9.43
2022-09-30T23:04:32.684Z,10.07
2022-09-30T23:07:00.612Z,9.50
2022-09-30T23:09:27.826Z,10.00
2022-09-30T23:11:57.023Z,10.85
2022-09-30T23:14:24.157Z,11.02
2022-09-30T23:16:51.552Z,10.93
2022-09-30T23:19:19.286Z,8.10
2022-09-30T23:21:46.291Z,9.77
2022-09-30T23:24:13.238Z,8.13
2022-09-30T23:26:40.578Z,11.05
2022-09-30T23:29:10.853Z,10.18
2022-09-30T23:31:38.280Z,7.32
2022-09-30T23:34:05.491Z,7.35
2022-09-30T23:36:36.717Z,8.60
2022-09-30T23:39:19.449Z,15.80
2022-09-30T23:41:47.578Z,11.43
2022-09-30T23:44:18.843Z,18.95
2022-09-30T23:47:05.756Z,9.15
2022-09-30T23:49:35.737Z,10.50
2022-09-30T23:52:04.757Z,10.00
2022-09-30T23:54:31.961Z,10.27
2022-09-30T23:56:58.857Z,7.55
2022-09-30T23:59:25.889Z,9.50
